Time;durP1;ratioP1;P1;durP2;ratioP2;P2;SDS_P1;SDS_P2;PMS_P1;PMS_P2;Temp;Humidity;BMP_temperature;BMP_pressure;BME280_temperature;BME280_humidity;BME280_pressure;Samples;Min_cycle;Max_cycle;Signal;HPM_P1;HPM_P2
2023/04/12 00:01:13;;;;;;;11.48;9.10;;;;;;;-146.26;100.00;59860.63;4990497;28;20054;-71
2023/04/12 00:03:38;;;;;;;10.48;8.23;;;;;;;-146.26;100.00;59860.63;4991664;28;20042;-70
2023/04/12 00:06:06;;;;;;;12.65;9.40;;;;;;;-146.26;100.00;59860.63;4991963;28;20400;-71
2023/04/12 00:08:32;;;;;;;14.40;11.15;;;;;;;-146.26;100.00;59860.63;4989547;28;20057;-70
2023/04/12 00:10:59;;;;;;;13.18;10.85;;;;;;;-146.26;100.00;59860.63;4988981;28;20042;-70
2023/04/12 00:13:25;;;;;;;13.07;10.90;;;;;;;-146.26;100.00;59860.63;4988877;28;20157;-71
2023/04/12 00:15:50;;;;;;;11.82;10.43;;;;;;;-146.26;100.00;59860.63;4988405;28;20606;-71
2023/04/12 00:18:15;;;;;;;13.23;9.15;;;;;;;-146.26;100.00;59860.63;4986821;28;20058;-70
2023/04/12 00:20:42;;;;;;;9.43;7.63;;;;;;;-146.26;100.00;59860.63;4984980;28;20450;-71
2023/04/12 00:23:09;;;;;;;11.80;9.48;;;;;;;-146.26;100.00;59860.63;4992279;28;20145;-71
2023/04/12 00:25:37;;;;;;;17.33;12.20;;;;;;;-146.26;100.00;59860.63;4988571;28;20031;-70
2023/04/12 00:28:02;;;;;;;13.50;10.75;;;;;;;-146.26;100.00;59860.63;4988289;28;20056;-71
2023/04/12 00:30:28;;;;;;;15.00;10.32;;;;;;;-146.26;100.00;59860.63;4981188;28;20042;-70
2023/04/12 00:32:53;;;;;;;14.10;9.93;;;;;;;-146.26;100.00;59860.63;4988684;28;20057;-70
2023/04/12 00:35:19;;;;;;;12.77;10.18;;;;;;;-146.26;100.00;59860.63;4988107;28;20426;-71
2023/04/12 00:37:45;;;;;;;12.50;10.05;;;;;;;-146.26;100.00;59860.63;4988354;28;20391;-71
2023/04/12 00:40:11;;;;;;;11.55;10.35;;;;;;;-146.26;100.00;59860.63;4989396;28;20034;-71
2023/04/12 00:42:36;;;;;;;13.35;9.93;;;;;;;-146.26;100.00;59860.63;4988253;28;20046;-71
2023/04/12 00:45:03;;;;;;;13.50;10.40;;;;;;;-146.26;100.00;59860.63;4988180;28;20049;-72
2023/04/12 00:47:29;;;;;;;16.15;10.77;;;;;;;-146.26;100.00;59860.63;4988414;28;20069;-71
2023/04/12 00:49:55;;;;;;;14.15;11.38;;;;;;;-146.26;100.00;59860.63;4984753;28;20057;-70
2023/04/12 00:52:21;;;;;;;15.27;11.50;;;;;;;-146.26;100.00;59860.63;4989211;28;20046;-71
2023/04/12 00:54:47;;;;;;;14.13;11.57;;;;;;;-146.26;100.00;59860.63;4988250;28;20074;-70
2023/04/12 00:57:13;;;;;;;14.63;11.57;;;;;;;-146.26;100.00;59860.63;4995489;28;20076;-71
2023/04/12 00:59:40;;;;;;;13.90;11.40;;;;;;;-146.26;100.00;59860.63;4990681;28;20410;-72
2023/04/12 01:02:06;;;;;;;14.40;11.18;;;;;;;-146.26;100.00;59860.63;4975752;28;20129;-72
2023/04/12 01:04:33;;;;;;;15.50;11.77;;;;;;;-146.26;100.00;59860.63;4986680;28;20045;-72
2023/04/12 01:07:20;;;;;;;16.75;10.88;;;;;;;-146.26;100.00;59860.63;4985626;28;20445;-72
2023/04/12 01:10:11;;;;;;;15.07;11.02;;;;;;;-146.26;100.00;59860.63;4981259;28;20101;-73
2023/04/12 01:13:24;;;;;;;15.07;12.43;;;;;;;-146.26;100.00;59860.63;4987108;28;20088;-72
2023/04/12 01:16:18;;;;;;;14.13;11.63;;;;;;;-146.26;100.00;59860.63;4985167;28;20050;-72
2023/04/12 01:18:49;;;;;;;;;;;;;;;-146.26;100.00;59860.63;4966105;28;20053;-71
2023/04/12 01:21:26;;;;;;;15.40;11.98;;;;;;;-146.26;100.00;59860.63;4986193;28;19968;-72
2023/04/12 01:24:31;;;;;;;14.27;11.52;;;;;;;-146.26;100.00;59860.63;4986365;28;20046;-73
2023/04/12 01:27:00;;;;;;;13.60;11.05;;;;;;;-146.26;100.00;59860.63;4985814;28;20053;-70
2023/04/12 01:29:28;;;;;;;13.27;11.88;;;;;;;-146.26;100.00;59860.63;4981355;28;20053;-71
2023/04/12 01:31:58;;;;;;;14.48;10.55;;;;;;;-146.26;100.00;59860.63;4986285;28;20410;-72
2023/04/12 01:34:27;;;;;;;15.00;10.02;;;;;;;-146.26;100.00;59860.63;4986399;28;20491;-72
2023/04/12 01:36:56;;;;;;;13.55;12.07;;;;;;;-146.26;100.00;59860.63;4984220;28;20092;-71
2023/04/12 01:39:22;;;;;;;17.33;12.73;;;;;;;-146.26;100.00;59860.63;4984026;28;20053;-72
2023/04/12 01:41:47;;;;;;;15.38;11.90;;;;;;;-146.26;100.00;59860.63;4987525;28;20046;-71
2023/04/12 01:44:15;;;;;;;14.77;11.80;;;;;;;-146.26;100.00;59860.63;4985763;28;20789;-71
2023/04/12 01:46:42;;;;;;;16.45;12.15;;;;;;;-146.26;100.00;59860.63;4980250;28;20067;-71
2023/04/12 01:49:09;;;;;;;13.70;11.98;;;;;;;-146.26;100.00;59860.63;4987759;28;20467;-71
2023/04/12 01:52:04;;;;;;;16.48;11.57;;;;;;;-146.26;100.00;59860.63;4987068;28;20057;-71
2023/04/12 01:54:36;;;;;;;17.88;12.43;;;;;;;-146.26;100.00;59860.63;4983758;28;20062;-71
2023/04/12 01:57:03;;;;;;;16.10;13.07;;;;;;;-146.26;100.00;59860.63;4982802;28;20059;-71
2023/04/12 01:59:38;;;;;;;20.13;13.57;;;;;;;-146.26;100.00;59860.63;4982092;28;20348;-71
2023/04/12 02:02:04;;;;;;;16.50;13.25;;;;;;;-146.26;100.00;59860.63;4977573;28;20499;-71
2023/04/12 02:04:31;;;;;;;18.02;13.65;;;;;;;-146.26;100.00;59860.63;4982414;28;20122;-71
2023/04/12 02:06:56;;;;;;;15.73;12.07;;;;;;;-146.26;100.00;59860.63;4988527;28;20097;-71
2023/04/12 02:09:22;;;;;;;16.23;12.73;;;;;;;-146.26;100.00;59860.63;4987152;28;20057;-71
2023/04/12 02:11:48;;;;;;;17.00;12.50;;;;;;;-146.26;100.00;59860.63;4982866;28;20499;-71
2023/04/12 02:14:14;;;;;;;15.25;12.52;;;;;;;-146.26;100.00;59860.63;4980973;28;20054;-72
2023/04/12 02:16:41;;;;;;;15.20;11.15;;;;;;;-146.26;100.00;59860.63;4981291;28;20067;-72
2023/04/12 02:19:07;;;;;;;14.85;12.73;;;;;;;-146.26;100.00;59860.63;4976970;28;20037;-72
2023/04/12 02:21:45;;;;;;;15.93;12.77;;;;;;;-146.26;100.00;59860.63;4981052;28;20046;-72
2023/04/12 02:24:11;;;;;;;24.38;12.02;;;;;;;-146.26;100.00;59860.63;4984956;28;20070;-72
2023/04/12 02:26:37;;;;;;;14.70;13.07;;;;;;;-146.26;100.00;59860.63;4988586;28;20092;-75
2023/04/12 02:29:06;;;;;;;18.60;13.48;;;;;;;-146.26;100.00;59860.63;4988869;28;20089;-70
2023/04/12 02:31:33;;;;;;;17.15;12.50;;;;;;;-146.26;100.00;59860.63;4987289;28;20038;-72
2023/04/12 02:33:59;;;;;;;20.10;12.32;;;;;;;-146.26;100.00;59860.63;4989656;28;20479;-69
2023/04/12 02:36:24;;;;;;;17.50;12.55;;;;;;;-146.26;100.00;59860.63;5022174;28;20129;-72
2023/04/12 02:38:50;;;;;;;17.52;12.30;;;;;;;-146.26;100.00;59860.63;4989570;28;20550;-70
2023/04/12 02:41:17;;;;;;;15.35;11.85;;;;;;;-146.26;100.00;59860.63;4988281;28;20042;-73
2023/04/12 02:43:43;;;;;;;15.02;11.68;;;;;;;-146.26;100.00;59860.63;4989760;28;20041;-71
2023/04/12 02:46:08;;;;;;;14.65;10.43;;;;;;;-146.26;100.00;59860.63;4991092;28;20030;-72
2023/04/12 02:48:34;;;;;;;14.55;10.82;;;;;;;-146.26;100.00;59860.63;4991194;28;20560;-72
2023/04/12 02:50:59;;;;;;;15.95;10.98;;;;;;;-146.26;100.00;59860.63;4990734;28;20042;-72
2023/04/12 02:53:25;;;;;;;15.60;11.68;;;;;;;-146.26;100.00;59860.63;4990672;28;20046;-70
2023/04/12 02:55:50;;;;;;;15.63;11.88;;;;;;;-146.26;100.00;59860.63;4989924;28;20085;-72
2023/04/12 02:58:16;;;;;;;16.38;11.75;;;;;;;-146.26;100.00;59860.63;4990989;28;20394;-72
2023/04/12 03:00:42;;;;;;;15.43;12.23;;;;;;;-146.26;100.00;59860.63;4990112;28;20406;-72
2023/04/12 03:03:08;;;;;;;16.63;12.82;;;;;;;-146.26;100.00;59860.63;4990170;28;20074;-70
2023/04/12 03:05:35;;;;;;;15.27;11.13;;;;;;;-146.26;100.00;59860.63;4993025;28;20096;-72
2023/04/12 03:08:00;;;;;;;14.70;12.05;;;;;;;-146.26;100.00;59860.63;4988390;28;20129;-73
2023/04/12 03:10:26;;;;;;;14.75;11.55;;;;;;;-146.26;100.00;59860.63;4985634;28;20145;-71
2023/04/12 03:12:51;;;;;;;17.17;12.32;;;;;;;-146.26;100.00;59860.63;4988868;28;20117;-70
2023/04/12 03:15:17;;;;;;;17.85;12.38;;;;;;;-146.26;100.00;59860.63;4987043;28;20522;-72
2023/04/12 03:17:43;;;;;;;13.90;12.15;;;;;;;-146.26;100.00;59860.63;4984021;28;20117;-71
2023/04/12 03:20:09;;;;;;;15.43;11.13;;;;;;;-146.26;100.00;59860.63;4988810;28;20133;-71
2023/04/12 03:22:38;;;;;;;16.70;12.63;;;;;;;-146.26;100.00;59860.63;4981299;28;20117;-71
2023/04/12 03:25:04;;;;;;;15.00;11.60;;;;;;;-146.26;100.00;59860.63;4988770;28;20402;-70
2023/04/12 03:27:29;;;;;;;16.48;10.60;;;;;;;-146.26;100.00;59860.63;4989729;28;20050;-70
2023/04/12 03:29:55;;;;;;;12.38;9.88;;;;;;;-146.26;100.00;59860.63;4984958;28;20778;-72
2023/04/12 03:32:21;;;;;;;13.35;10.90;;;;;;;-146.26;100.00;59860.63;4987767;28;20054;-72
2023/04/12 03:34:46;;;;;;;13.60;11.60;;;;;;;-146.26;100.00;59860.63;4985280;28;20056;-72
2023/04/12 03:37:12;;;;;;;19.00;12.57;;;;;;;-146.26;100.00;59860.63;5011780;28;20034;-71
2023/04/12 03:39:38;;;;;;;15.55;11.32;;;;;;;-146.26;100.00;59860.63;4981769;28;20069;-73
2023/04/12 03:42:03;;;;;;;18.08;11.82;;;;;;;-146.26;100.00;59860.63;4989644;28;20418;-70
2023/04/12 03:44:29;;;;;;;17.42;10.45;;;;;;;-146.26;100.00;59860.63;4988678;28;20094;-71
2023/04/12 03:46:54;;;;;;;17.05;12.77;;;;;;;-146.26;100.00;59860.63;4986119;28;20052;-73
2023/04/12 03:49:20;;;;;;;16.75;11.52;;;;;;;-146.26;100.00;59860.63;4988023;28;20693;-72
2023/04/12 03:51:49;;;;;;;17.80;12.27;;;;;;;-146.26;100.00;59860.63;4986570;28;20443;-70
2023/04/12 03:54:15;;;;;;;19.08;11.65;;;;;;;-146.26;100.00;59860.63;4987765;28;20616;-71
2023/04/12 03:56:40;;;;;;;17.25;11.85;;;;;;;-146.26;100.00;59860.63;4983596;28;20039;-71
2023/04/12 03:59:09;;;;;;;16.08;11.80;;;;;;;-146.26;100.00;59860.63;4985946;28;20362;-72
2023/04/12 04:01:36;;;;;;;16.40;12.30;;;;;;;-146.26;100.00;59860.63;4989134;28;20110;-69
2023/04/12 04:04:02;;;;;;;13.93;11.27;;;;;;;-146.26;100.00;59860.63;4994975;28;20431;-71
2023/04/12 04:06:28;;;;;;;21.02;13.48;;;;;;;-146.26;100.00;59860.63;4985404;28;20046;-70
2023/04/12 04:08:57;;;;;;;14.68;11.85;;;;;;;-146.26;100.00;59860.63;4981003;28;20057;-70
2023/04/12 04:11:23;;;;;;;13.63;11.20;;;;;;;-146.26;100.00;59860.63;4988257;28;20042;-70
2023/04/12 04:13:49;;;;;;;21.45;11.52;;;;;;;-146.26;100.00;59860.63;4987876;28;20125;-70
2023/04/12 04:16:15;;;;;;;18.77;13.05;;;;;;;-146.26;100.00;59860.63;4986399;28;20224;-72
2023/04/12 04:18:40;;;;;;;12.38;10.75;;;;;;;-146.26;100.00;59860.63;4983685;28;20141;-71
2023/04/12 04:21:06;;;;;;;13.75;10.32;;;;;;;-146.26;100.00;59860.63;4986714;28;20049;-70
2023/04/12 04:23:38;;;;;;;12.48;10.32;;;;;;;-146.26;100.00;59860.63;4988690;28;20082;-70
2023/04/12 04:26:10;;;;;;;15.40;11.52;;;;;;;-146.26;100.00;59860.63;4984825;28;20057;-71
2023/04/12 04:28:44;;;;;;;16.83;11.88;;;;;;;-146.26;100.00;59860.63;4982866;28;20045;-72
2023/04/12 04:31:10;;;;;;;16.85;13.20;;;;;;;-146.26;100.00;59860.63;4979948;28;20038;-71
2023/04/12 04:33:37;;;;;;;17.08;12.45;;;;;;;-146.26;100.00;59860.63;4981418;28;20065;-71
2023/04/12 04:36:04;;;;;;;14.63;9.63;;;;;;;-146.26;100.00;59860.63;4987711;28;20502;-71
2023/04/12 04:38:31;;;;;;;16.38;12.70;;;;;;;-146.26;100.00;59860.63;4988190;28;20101;-72
2023/04/12 04:40:58;;;;;;;15.50;11.20;;;;;;;-146.26;100.00;59860.63;4985097;28;20055;-70
2023/04/12 04:43:25;;;;;;;15.80;12.35;;;;;;;-146.26;100.00;59860.63;4982218;28;20552;-71
2023/04/12 04:45:53;;;;;;;13.93;11.00;;;;;;;-146.26;100.00;59860.63;4988133;28;20129;-70
2023/04/12 04:48:20;;;;;;;16.67;12.63;;;;;;;-146.26;100.00;59860.63;4986131;28;20046;-70
2023/04/12 04:50:45;;;;;;;17.38;12.00;;;;;;;-146.26;100.00;59860.63;4988496;28;20061;-71
2023/04/12 04:53:11;;;;;;;14.35;11.57;;;;;;;-146.26;100.00;59860.63;4982675;28;20051;-72
2023/04/12 04:55:37;;;;;;;16.67;10.35;;;;;;;-146.26;100.00;59860.63;4984465;28;20060;-72
2023/04/12 04:58:02;;;;;;;13.43;10.68;;;;;;;-146.26;100.00;59860.63;4985299;28;20474;-71
2023/04/12 05:00:28;;;;;;;13.60;10.00;;;;;;;-146.26;100.00;59860.63;4979006;28;20213;-71
2023/04/12 05:02:53;;;;;;;17.13;11.20;;;;;;;-146.26;100.00;59860.63;4974157;28;20132;-70
2023/04/12 05:05:22;;;;;;;13.57;10.13;;;;;;;-146.26;100.00;59860.63;4986436;28;20046;-72
2023/04/12 05:07:47;;;;;;;13.85;10.68;;;;;;;-146.26;100.00;59860.63;5016208;28;20042;-71
2023/04/12 05:10:13;;;;;;;12.57;10.55;;;;;;;-146.26;100.00;59860.63;4986875;28;20521;-70
2023/04/12 05:12:39;;;;;;;12.95;9.63;;;;;;;-146.26;100.00;59860.63;4986096;28;20046;-71
2023/04/12 05:15:05;;;;;;;15.88;9.38;;;;;;;-146.26;100.00;59860.63;4979442;28;20170;-70
2023/04/12 05:17:30;;;;;;;13.10;9.68;;;;;;;-146.26;100.00;59860.63;4984004;28;20054;-71
2023/04/12 05:19:56;;;;;;;12.00;9.80;;;;;;;-146.26;100.00;59860.63;4987868;28;20042;-71
2023/04/12 05:22:22;;;;;;;11.48;8.13;;;;;;;-146.26;100.00;59860.63;4987740;28;20041;-71
2023/04/12 05:24:48;;;;;;;11.88;8.07;;;;;;;-146.26;100.00;59860.63;4987660;28;20428;-71
2023/04/12 05:27:15;;;;;;;13.75;8.82;;;;;;;-146.26;100.00;59860.63;4987135;28;20137;-71
2023/04/12 05:29:44;;;;;;;15.10;8.82;;;;;;;-146.26;100.00;59860.63;4985030;28;20051;-72
2023/04/12 05:32:09;;;;;;;10.50;9.30;;;;;;;-146.26;100.00;59860.63;4985078;28;20474;-72
2023/04/12 05:34:36;;;;;;;11.35;8.48;;;;;;;-146.26;100.00;59860.63;4987372;28;20038;-71
2023/04/12 05:37:02;;;;;;;11.10;8.77;;;;;;;-146.26;100.00;59860.63;4988527;28;20042;-71
2023/04/12 05:39:28;;;;;;;15.77;9.00;;;;;;;-146.26;100.00;59860.63;4986584;28;20053;-71
2023/04/12 05:41:54;;;;;;;11.43;8.57;;;;;;;-146.26;100.00;59860.63;4985286;28;20066;-70
2023/04/12 05:44:20;;;;;;;11.82;9.48;;;;;;;-146.26;100.00;59860.63;4984268;28;20046;-70
2023/04/12 05:46:45;;;;;;;11.60;9.55;;;;;;;-146.26;100.00;59860.63;4985067;28;20086;-70
2023/04/12 05:49:11;;;;;;;12.60;10.00;;;;;;;-146.26;100.00;59860.63;4988759;28;20428;-70
2023/04/12 05:51:37;;;;;;;14.13;10.45;;;;;;;-146.26;100.00;59860.63;4986415;28;20422;-69
2023/04/12 05:54:06;;;;;;;13.25;10.30;;;;;;;-146.26;100.00;59860.63;4984389;28;20142;-70
2023/04/12 05:56:32;;;;;;;14.57;9.40;;;;;;;-146.26;100.00;59860.63;4979238;28;20912;-71
2023/04/12 05:59:00;;;;;;;15.65;10.60;;;;;;;-146.26;100.00;59860.63;4984685;28;20050;-70
2023/04/12 06:01:32;;;;;;;15.02;10.48;;;;;;;-146.26;100.00;59860.63;4980398;28;20686;-70
2023/04/12 06:03:57;;;;;;;12.25;10.15;;;;;;;-146.26;100.00;59860.63;4984245;28;20042;-70
2023/04/12 06:06:23;;;;;;;12.95;10.27;;;;;;;-146.26;100.00;59860.63;4986298;28;20054;-70
2023/04/12 06:08:48;;;;;;;18.67;9.88;;;;;;;-146.26;100.00;59860.63;4977897;28;20053;-72
2023/04/12 06:11:15;;;;;;;15.77;9.60;;;;;;;-146.26;100.00;59860.63;4981662;28;20053;-70
2023/04/12 06:13:41;;;;;;;13.25;10.60;;;;;;;-146.26;100.00;59860.63;4980863;28;20030;-71
2023/04/12 06:16:06;;;;;;;18.55;11.27;;;;;;;-146.26;100.00;59860.63;4984034;28;20046;-71
2023/04/12 06:18:32;;;;;;;14.57;11.75;;;;;;;-146.26;100.00;59860.63;4979647;28;20042;-71
2023/04/12 06:20:59;;;;;;;14.85;11.45;;;;;;;-146.26;100.00;59860.63;4984331;28;20093;-71
2023/04/12 06:23:24;;;;;;;17.10;11.23;;;;;;;-146.26;100.00;59860.63;4981170;28;20125;-71
2023/04/12 06:25:50;;;;;;;16.08;10.07;;;;;;;-146.26;100.00;59860.63;4981798;28;20463;-71
2023/04/12 06:28:15;;;;;;;12.63;10.25;;;;;;;-146.26;100.00;59860.63;4981025;28;20056;-71
2023/04/12 06:30:41;;;;;;;13.65;10.32;;;;;;;-146.26;100.00;59860.63;4983937;28;20058;-70
2023/04/12 06:33:07;;;;;;;12.07;9.57;;;;;;;-146.26;100.00;59860.63;4982169;28;20050;-71
2023/04/12 06:35:32;;;;;;;14.38;8.05;;;;;;;-146.26;100.00;59860.63;4991698;28;20062;-71
2023/04/12 06:37:58;;;;;;;18.38;10.25;;;;;;;-146.26;100.00;59860.63;4982874;28;20066;-71
2023/04/12 06:40:23;;;;;;;16.02;10.00;;;;;;;-146.26;100.00;59860.63;4982828;28;20555;-74
2023/04/12 06:42:49;;;;;;;12.48;7.78;;;;;;;-146.26;100.00;59860.63;5007954;28;20069;-70
2023/04/12 06:45:14;;;;;;;9.85;7.07;;;;;;;-146.26;100.00;59860.63;4981478;28;20054;-70
2023/04/12 06:47:40;;;;;;;18.85;9.98;;;;;;;-146.26;100.00;59860.63;4982444;28;20604;-74
2023/04/12 06:50:06;;;;;;;14.77;9.95;;;;;;;-146.26;100.00;59860.63;4974721;28;20066;-74
2023/04/12 06:52:33;;;;;;;19.67;11.80;;;;;;;-146.26;100.00;59860.63;4976489;28;20088;-74
2023/04/12 06:54:58;;;;;;;14.75;10.18;;;;;;;-146.26;100.00;59860.63;4975750;28;20027;-71
2023/04/12 06:57:25;;;;;;;12.82;10.18;;;;;;;-146.26;100.00;59860.63;4984005;28;20138;-70
2023/04/12 06:59:51;;;;;;;11.65;9.38;;;;;;;-146.26;100.00;59860.63;4984372;28;20142;-71
2023/04/12 07:02:17;;;;;;;12.40;10.70;;;;;;;-146.26;100.00;59860.63;4983765;28;20149;-71
2023/04/12 07:04:42;;;;;;;16.38;11.00;;;;;;;-146.26;100.00;59860.63;4985821;28;20029;-72
2023/04/12 07:07:09;;;;;;;15.98;10.75;;;;;;;-146.26;100.00;59860.63;4979964;28;20035;-71
2023/04/12 07:09:34;;;;;;;16.02;13.32;;;;;;;-146.26;100.00;59860.63;4985166;28;20113;-72
2023/04/12 07:12:01;;;;;;;31.13;15.43;;;;;;;-146.26;100.00;59860.63;4985730;28;20050;-72
2023/04/12 07:14:26;;;;;;;22.52;17.05;;;;;;;-146.26;100.00;59860.63;4986948;28;20057;-73
2023/04/12 07:16:52;;;;;;;19.50;15.23;;;;;;;-146.26;100.00;59860.63;4991481;28;20046;-73
2023/04/12 07:19:17;;;;;;;21.15;16.10;;;;;;;-146.26;100.00;59860.63;4984395;28;20030;-70
2023/04/12 07:21:43;;;;;;;26.50;14.93;;;;;;;-146.26;100.00;59860.63;4991923;28;20049;-70
2023/04/12 07:24:08;;;;;;;16.05;13.70;;;;;;;-146.26;100.00;59860.63;4985558;28;20402;-72
2023/04/12 07:26:34;;;;;;;25.13;14.77;;;;;;;-146.26;100.00;59860.63;4988751;28;20046;-72
2023/04/12 07:28:59;;;;;;;27.45;14.23;;;;;;;-146.26;100.00;59860.63;4989734;28;20351;-72
2023/04/12 07:31:25;;;;;;;20.73;13.75;;;;;;;-146.26;100.00;59860.63;4986398;28;20034;-75
2023/04/12 07:33:50;;;;;;;18.05;13.02;;;;;;;-146.26;100.00;59860.63;4990331;28;20690;-71
2023/04/12 07:36:19;;;;;;;14.85;11.48;;;;;;;-146.26;100.00;59860.63;4985034;28;20046;-72
2023/04/12 07:38:45;;;;;;;22.98;15.55;;;;;;;-146.26;100.00;59860.63;4989331;28;20041;-71
2023/04/12 07:41:11;;;;;;;25.65;16.42;;;;;;;-146.26;100.00;59860.63;4990928;28;20156;-71
2023/04/12 07:43:36;;;;;;;15.98;12.80;;;;;;;-146.26;100.00;59860.63;4997962;28;20117;-71
2023/04/12 07:46:06;;;;;;;20.88;14.63;;;;;;;-146.26;100.00;59860.63;4989521;28;20026;-73
2023/04/12 07:48:32;;;;;;;24.95;16.42;;;;;;;-146.26;100.00;59860.63;4990571;28;20108;-72
2023/04/12 07:50:57;;;;;;;20.10;15.02;;;;;;;-146.26;100.00;59860.63;4990465;28;20046;-70
2023/04/12 07:53:25;;;;;;;14.23;12.35;;;;;;;-146.26;100.00;59860.63;4990172;28;20038;-70
2023/04/12 07:55:51;;;;;;;23.27;14.80;;;;;;;-146.26;100.00;59860.63;4987241;28;20038;-72
2023/04/12 07:58:18;;;;;;;26.45;16.92;;;;;;;-146.26;100.00;59860.63;4990066;28;20110;-70
2023/04/12 08:00:45;;;;;;;24.17;16.90;;;;;;;-146.26;100.00;59860.63;4990651;28;20049;-72
2023/04/12 08:03:12;;;;;;;26.50;18.08;;;;;;;-146.26;100.00;59860.63;4985606;28;20050;-73
2023/04/12 08:05:38;;;;;;;21.48;18.70;;;;;;;-146.26;100.00;59860.63;4988869;28;20078;-73
2023/04/12 08:08:03;;;;;;;33.95;18.95;;;;;;;-146.26;100.00;59860.63;4993906;28;20068;-71
2023/04/12 08:10:30;;;;;;;20.02;16.83;;;;;;;-146.26;100.00;59860.63;4990396;28;20097;-72
2023/04/12 08:12:55;;;;;;;26.90;18.42;;;;;;;-146.26;100.00;59860.63;4990409;28;20038;-73
2023/04/12 08:15:21;;;;;;;21.58;17.40;;;;;;;-146.26;100.00;59860.63;4989997;28;20057;-73
2023/04/12 08:17:47;;;;;;;26.10;17.73;;;;;;;-146.26;100.00;59860.63;4979930;28;20126;-71
2023/04/12 08:20:14;;;;;;;32.83;17.90;;;;;;;-146.26;100.00;59860.63;4984549;28;20062;-71
2023/04/12 08:22:42;;;;;;;19.98;13.05;;;;;;;-146.26;100.00;59860.63;4990637;28;20037;-71
2023/04/12 08:25:09;;;;;;;22.73;11.13;;;;;;;-146.26;100.00;59860.63;4988019;28;20030;-71
2023/04/12 08:27:35;;;;;;;18.35;11.85;;;;;;;-146.26;100.00;59860.63;4989692;28;20192;-71
2023/04/12 08:30:01;;;;;;;14.63;10.05;;;;;;;-146.26;100.00;59860.63;4985471;28;20128;-72
2023/04/12 08:32:26;;;;;;;23.48;10.32;;;;;;;-146.26;100.00;59860.63;4986594;28;20053;-72
2023/04/12 08:34:54;;;;;;;18.83;12.65;;;;;;;-146.26;100.00;59860.63;4989156;28;20689;-72
2023/04/12 08:37:19;;;;;;;19.30;13.80;;;;;;;-146.26;100.00;59860.63;4994098;28;20660;-71
2023/04/12 08:39:45;;;;;;;16.45;11.05;;;;;;;-146.26;100.00;59860.63;4986009;28;20050;-72
2023/04/12 08:42:14;;;;;;;15.93;10.60;;;;;;;-146.26;100.00;59860.63;4989747;28;20100;-72
2023/04/12 08:44:39;;;;;;;22.17;12.00;;;;;;;-146.26;100.00;59860.63;4986146;28;20517;-72
2023/04/12 08:47:10;;;;;;;13.35;10.45;;;;;;;-146.26;100.00;59860.63;4985930;28;20054;-72
2023/04/12 08:49:36;;;;;;;14.77;9.70;;;;;;;-146.26;100.00;59860.63;4984625;28;20026;-73
2023/04/12 08:52:07;;;;;;;12.45;10.75;;;;;;;-146.26;100.00;59860.63;4983355;28;20407;-71
2023/04/12 08:54:34;;;;;;;18.23;8.50;;;;;;;-146.26;100.00;59860.63;4989502;28;20412;-72
2023/04/12 08:57:03;;;;;;;13.85;10.23;;;;;;;-146.26;100.00;59860.63;4985899;28;20066;-70
2023/04/12 08:59:30;;;;;;;12.73;9.43;;;;;;;-146.26;100.00;59860.63;4991249;28;20053;-71
2023/04/12 09:01:57;;;;;;;12.80;8.50;;;;;;;-146.26;100.00;59860.63;4987735;28;20144;-73
2023/04/12 09:04:23;;;;;;;18.17;9.48;;;;;;;-146.26;100.00;59860.63;4984675;28;20038;-72
2023/04/12 09:06:48;;;;;;;18.30;10.75;;;;;;;-146.26;100.00;59860.63;4988587;28;20045;-72
2023/04/12 09:09:14;;;;;;;16.63;9.80;;;;;;;-146.26;100.00;59860.63;4987545;28;20054;-72
2023/04/12 09:11:39;;;;;;;14.13;8.73;;;;;;;-146.26;100.00;59860.63;4981674;28;20154;-72
2023/04/12 09:14:22;;;;;;;13.93;8.77;;;;;;;-146.26;100.00;59860.63;4981408;28;20130;-72
2023/04/12 09:16:49;;;;;;;18.67;10.67;;;;;;;-146.26;100.00;59860.63;4965968;28;20137;-71
2023/04/12 09:19:15;;;;;;;14.32;8.25;;;;;;;-146.26;100.00;59860.63;4959956;28;20111;-74
2023/04/12 09:21:53;;;;;;;18.13;10.25;;;;;;;-146.26;100.00;59860.63;4965784;28;20054;-72
2023/04/12 09:24:22;;;;;;;12.85;9.55;;;;;;;-146.26;100.00;59860.63;4970979;28;20552;-73
2023/04/12 09:27:09;;;;;;;15.40;10.57;;;;;;;-146.26;100.00;59860.63;4966142;28;20410;-71
2023/04/12 09:29:35;;;;;;;11.30;9.55;;;;;;;-146.26;100.00;59860.63;4960030;28;20051;-72
2023/04/12 09:32:08;;;;;;;27.42;10.40;;;;;;;-146.26;100.00;59860.63;4957755;28;20084;-74
2023/04/12 09:34:35;;;;;;;21.63;9.83;;;;;;;-146.26;100.00;59860.63;4966030;28;20070;-72
2023/04/12 09:37:16;;;;;;;19.38;11.40;;;;;;;-146.26;100.00;59860.63;4963853;28;20449;-74
2023/04/12 09:39:42;;;;;;;14.48;11.02;;;;;;;-146.26;100.00;59860.63;4966902;28;20510;-75
2023/04/12 09:42:11;;;;;;;13.82;10.40;;;;;;;-146.26;100.00;59860.63;4960464;28;20055;-73
2023/04/12 09:44:38;;;;;;;13.45;10.68;;;;;;;-146.26;100.00;59860.63;4974805;28;20074;-72
2023/04/12 09:47:04;;;;;;;12.73;10.73;;;;;;;-146.26;100.00;59860.63;4986682;28;20112;-72
2023/04/12 09:49:42;;;;;;;23.90;12.55;;;;;;;-146.26;100.00;59860.63;4982870;28;20043;-72
2023/04/12 09:52:12;;;;;;;16.05;11.32;;;;;;;-146.26;100.00;59860.63;4981754;28;20034;-73
2023/04/12 09:54:50;;;;;;;14.55;9.65;;;;;;;-146.26;100.00;59860.63;4980935;28;20053;-73
2023/04/12 09:57:22;;;;;;;15.85;8.73;;;;;;;-146.26;100.00;59860.63;4982361;28;20502;-72
2023/04/12 09:59:50;;;;;;;12.77;10.00;;;;;;;-146.26;100.00;59860.63;4985551;28;20116;-73
2023/04/12 10:02:25;;;;;;;24.42;13.07;;;;;;;-146.26;100.00;59860.63;4985880;28;20495;-73
2023/04/12 10:04:51;;;;;;;21.35;11.25;;;;;;;-146.26;100.00;59860.63;4992359;28;20070;-72
2023/04/12 10:07:18;;;;;;;15.45;9.57;;;;;;;-146.26;100.00;59860.63;4988275;28;20088;-73
2023/04/12 10:09:44;;;;;;;18.90;9.30;;;;;;;-146.26;100.00;59860.63;4980183;28;20054;-73
2023/04/12 10:12:10;;;;;;;10.82;7.72;;;;;;;-146.26;100.00;59860.63;4981374;28;20450;-72
2023/04/12 10:14:36;;;;;;;8.45;6.28;;;;;;;-146.26;100.00;59860.63;4986869;28;20050;-73
2023/04/12 10:17:04;;;;;;;16.48;6.03;;;;;;;-146.26;100.00;59860.63;4982017;28;20096;-72
2023/04/12 10:19:32;;;;;;;11.63;7.30;;;;;;;-146.26;100.00;59860.63;4983340;28;20130;-72
2023/04/12 10:21:58;;;;;;;14.20;9.90;;;;;;;-146.26;100.00;59860.63;4986509;28;20075;-73
2023/04/12 10:24:26;;;;;;;15.57;11.20;;;;;;;-146.26;100.00;59860.63;4983367;28;20541;-73
2023/04/12 10:26:59;;;;;;;24.58;10.88;;;;;;;-146.26;100.00;59860.63;4985470;28;20046;-72
2023/04/12 10:29:30;;;;;;;13.73;9.53;;;;;;;-146.26;100.00;59860.63;4987074;28;20043;-73
2023/04/12 10:32:19;;;;;;;15.20;11.07;;;;;;;-146.26;100.00;59860.63;4983421;28;20050;-72
2023/04/12 10:34:50;;;;;;;16.75;10.80;;;;;;;-146.26;100.00;59860.63;4983198;28;20038;-72
2023/04/12 10:37:16;;;;;;;13.95;11.52;;;;;;;-146.26;100.00;59860.63;4980499;28;20818;-74
2023/04/12 10:39:43;;;;;;;10.73;7.45;;;;;;;-146.26;100.00;59860.63;4975635;28;20046;-73
2023/04/12 10:42:22;;;;;;;14.95;7.32;;;;;;;-146.26;100.00;59860.63;4983501;28;20261;-74
2023/04/12 10:44:50;;;;;;;12.50;8.73;;;;;;;-146.26;100.00;59860.63;4980668;28;20061;-73
2023/04/12 10:47:36;;;;;;;13.88;9.65;;;;;;;-146.26;100.00;59860.63;5020803;28;20058;-74
2023/04/12 10:50:23;;;;;;;15.85;9.45;;;;;;;-146.26;100.00;59860.63;4988476;28;20066;-72
2023/04/12 10:53:14;;;;;;;19.20;10.60;;;;;;;-146.26;100.00;59860.63;4989075;28;20324;-73
2023/04/12 10:55:41;;;;;;;15.48;8.80;;;;;;;-146.26;100.00;59860.63;4990201;28;20033;-74
2023/04/12 10:58:07;;;;;;;16.20;9.98;;;;;;;-146.26;100.00;59860.63;4980781;28;20038;-73
2023/04/12 11:00:55;;;;;;;11.27;8.27;;;;;;;-146.26;100.00;59860.63;5010339;28;20045;-73